Time;durP1;ratioP1;P1;durP2;ratioP2;P2;SDS_P1;SDS_P2;PMS_P1;PMS_P2;Temp;Humidity;BMP_temperature;BMP_pressure;BME280_temperature;BME280_humidity;BME280_pressure;Samples;Min_cycle;Max_cycle;Signal;HPM_P1;HPM_P2
2022/05/11 00:00:41;;;;;;;13.30;6.63;;;;;;;13.09;46.49;98609.81;5048681;28;20013;-84
2022/05/11 00:03:07;;;;;;;11.25;6.80;;;;;;;13.05;47.25;98606.88;5047396;28;20060;-83
2022/05/11 00:05:33;;;;;;;11.50;6.38;;;;;;;13.03;46.85;98603.63;5048244;28;20065;-84
2022/05/11 00:07:59;;;;;;;10.95;6.10;;;;;;;13.01;47.02;98602.31;5048805;28;20052;-83
2022/05/11 00:10:24;;;;;;;11.40;6.13;;;;;;;12.99;47.04;98610.06;5048457;28;20039;-83
2022/05/11 00:12:50;;;;;;;12.45;6.22;;;;;;;12.95;47.50;98594.16;5048481;28;20066;-84
2022/05/11 00:15:19;;;;;;;13.00;7.00;;;;;;;12.94;47.77;98594.44;5048575;28;20029;-84
2022/05/11 00:17:45;;;;;;;13.30;6.55;;;;;;;12.93;47.97;98601.06;5047274;28;21476;-83
2022/05/11 00:20:12;;;;;;;14.50;7.05;;;;;;;12.92;47.86;98594.78;5048433;28;20017;-83
2022/05/11 00:22:38;;;;;;;13.95;7.15;;;;;;;12.93;47.79;98593.66;5048424;28;20064;-84
2022/05/11 00:25:06;;;;;;;14.60;6.68;;;;;;;12.93;48.13;98592.81;5047121;28;20557;-83
2022/05/11 00:27:32;;;;;;;14.45;7.30;;;;;;;12.93;48.21;98590.06;5048111;28;20021;-84
2022/05/11 00:29:58;;;;;;;16.25;7.40;;;;;;;12.94;48.78;98591.69;5048214;28;20025;-83
2022/05/11 00:32:25;;;;;;;10.95;6.53;;;;;;;12.96;48.49;98583.94;5048816;28;20037;-83
2022/05/11 00:34:53;;;;;;;14.23;7.45;;;;;;;12.97;48.43;98577.31;5048690;28;20095;-83
2022/05/11 00:37:24;;;;;;;13.97;7.60;;;;;;;12.97;48.26;98587.53;5051267;28;20037;-83
2022/05/11 00:39:49;;;;;;;11.32;6.82;;;;;;;12.95;48.92;98576.81;5048432;28;20358;-83
2022/05/11 00:42:15;;;;;;;11.13;6.15;;;;;;;12.93;48.90;98577.13;5048263;28;20025;-83
2022/05/11 00:44:40;;;;;;;11.65;6.40;;;;;;;12.94;48.96;98577.94;5048066;28;20025;-84
2022/05/11 00:47:23;;;;;;;10.98;6.68;;;;;;;12.94;49.12;98573.25;5047414;28;20398;-84
2022/05/11 00:49:57;;;;;;;11.48;6.78;;;;;;;12.92;49.15;98566.41;5047510;28;20481;-84
2022/05/11 00:52:29;;;;;;;14.63;7.65;;;;;;;12.88;49.70;98565.41;5046590;28;20116;-84
2022/05/11 00:54:59;;;;;;;14.82;7.10;;;;;;;12.85;49.81;98563.25;5046506;28;20072;-85
2022/05/11 00:57:51;;;;;;;12.40;7.28;;;;;;;12.82;49.80;98563.91;5047566;28;20025;-84
2022/05/11 01:00:20;;;;;;;14.32;7.22;;;;;;;12.79;49.87;98571.66;5047465;28;20033;-84
2022/05/11 01:02:52;;;;;;;13.07;7.57;;;;;;;12.79;49.71;98566.16;5047245;28;20025;-84
2022/05/11 01:05:17;;;;;;;13.18;7.30;;;;;;;12.79;49.47;98563.41;5046690;28;20020;-83
2022/05/11 01:07:43;;;;;;;11.07;7.05;;;;;;;12.77;49.72;98571.16;5047897;28;20155;-82
2022/05/11 01:10:10;;;;;;;13.70;7.20;;;;;;;12.76;49.97;98566.75;5047983;28;20104;-82
2022/05/11 01:12:40;;;;;;;11.93;6.45;;;;;;;12.72;50.34;98570.41;5047780;28;20098;-82
2022/05/11 01:15:08;;;;;;;14.95;7.22;;;;;;;12.70;50.68;98569.91;5047907;28;20024;-83
2022/05/11 01:17:35;;;;;;;11.25;6.97;;;;;;;12.68;50.80;98563.91;5046357;28;20547;-82
2022/05/11 01:20:05;;;;;;;14.48;7.10;;;;;;;12.66;50.39;98569.72;5047989;28;20128;-82
2022/05/11 01:22:31;;;;;;;;;;;;;;;12.65;50.09;98568.09;5048251;28;20025;-83
2022/05/11 01:24:56;;;;;;;17.40;7.78;;;;;;;12.62;50.58;98575.03;5047534;28;19963;-82
2022/05/11 01:27:39;;;;;;;13.15;7.60;;;;;;;12.57;50.69;98563.31;5047725;28;20469;-83
2022/05/11 01:30:08;;;;;;;14.52;7.45;;;;;;;12.53;50.60;98563.13;5046910;28;20037;-83
2022/05/11 01:32:34;;;;;;;13.38;7.32;;;;;;;12.50;51.17;98561.78;5047595;28;20087;-82
2022/05/11 01:35:30;;;;;;;13.90;7.28;;;;;;;12.51;50.79;98566.16;5047785;28;20032;-83
2022/05/11 01:38:03;;;;;;;12.15;7.13;;;;;;;12.51;51.11;98560.66;5047355;28;20078;-83
2022/05/11 01:40:29;;;;;;;13.15;6.95;;;;;;;12.51;51.49;98565.38;5047527;28;20033;-82
2022/05/11 01:42:54;;;;;;;10.63;7.10;;;;;;;12.49;51.80;98559.34;5048450;28;20472;-84
2022/05/11 01:45:20;;;;;;;17.40;8.00;;;;;;;12.47;52.05;98559.63;5048544;28;20075;-83
2022/05/11 01:47:45;;;;;;;13.63;7.20;;;;;;;12.46;52.02;98548.97;5048042;28;20029;-83
2022/05/11 01:50:10;;;;;;;13.55;7.10;;;;;;;12.45;51.89;98561.09;5049089;28;20064;-83
2022/05/11 01:52:36;;;;;;;11.48;6.85;;;;;;;12.44;51.44;98548.44;5048228;28;20025;-83
2022/05/11 01:55:01;;;;;;;13.63;7.85;;;;;;;12.42;52.10;98548.78;5048274;28;20021;-83
2022/05/11 01:57:27;;;;;;;13.50;7.10;;;;;;;12.41;52.14;98554.56;5050675;28;20055;-83
2022/05/11 01:59:53;;;;;;;11.93;6.70;;;;;;;12.41;51.97;98546.31;5050796;28;20035;-83
2022/05/11 02:02:18;;;;;;;15.77;7.25;;;;;;;12.40;52.46;98551.00;5051408;28;20374;-83
2022/05/11 02:10:12;;;;;;;13.85;7.75;;;;;;;12.39;52.67;98552.13;5052164;28;20063;-83
2022/05/11 02:12:43;;;;;;;12.20;7.15;;;;;;;12.39;52.62;98543.03;5050409;28;20021;-84
2022/05/11 02:15:16;;;;;;;13.50;7.53;;;;;;;12.40;53.08;98541.94;5051320;28;20033;-84
2022/05/11 02:17:42;;;;;;;12.63;7.18;;;;;;;12.41;52.85;98538.06;5050448;28;20477;-84
2022/05/11 02:20:09;;;;;;;13.90;6.53;;;;;;;12.43;53.06;98538.56;5049418;28;20417;-81
2022/05/11 02:22:35;;;;;;;11.77;7.18;;;;;;;12.43;53.01;98531.13;5048579;28;20082;-79
2022/05/11 02:25:00;;;;;;;12.98;7.30;;;;;;;12.46;52.83;98530.50;5049973;28;20033;-80
2022/05/11 02:27:26;;;;;;;10.38;7.22;;;;;;;12.48;53.06;98536.50;5049528;28;20032;-78
2022/05/11 02:29:51;;;;;;;12.40;7.07;;;;;;;12.50;52.89;98537.03;5049798;28;20025;-78
2022/05/11 02:32:17;;;;;;;10.25;6.50;;;;;;;12.51;52.83;98533.16;5051014;28;20021;-78
2022/05/11 02:37:28;;;;;;;14.80;7.15;;;;;;;12.53;52.94;98532.03;5052839;28;20171;-77
2022/05/11 02:39:53;;;;;;;11.07;6.15;;;;;;;12.51;52.92;98529.59;5049934;28;20382;-77
2022/05/11 02:42:18;;;;;;;10.70;6.55;;;;;;;12.52;52.88;98525.72;5050984;28;20033;-78
2022/05/11 02:44:45;;;;;;;12.48;7.10;;;;;;;12.54;53.02;98526.25;5051014;28;21339;-77
2022/05/11 02:47:11;;;;;;;14.40;7.00;;;;;;;12.56;52.79;98523.16;5049547;28;20041;-77
2022/05/11 02:49:38;;;;;;;11.98;7.20;;;;;;;12.59;53.53;98523.38;5049424;28;20248;-77
2022/05/11 02:52:04;;;;;;;14.75;7.72;;;;;;;12.60;54.09;98507.66;5050336;28;20481;-77
2022/05/11 02:54:29;;;;;;;10.73;6.30;;;;;;;12.62;53.21;98520.00;5050811;28;20033;-77
2022/05/11 02:56:55;;;;;;;13.57;7.63;;;;;;;12.65;53.68;98518.56;5050047;28;20091;-77
2022/05/11 02:59:20;;;;;;;11.95;6.85;;;;;;;12.68;53.15;98517.97;5050834;28;20067;-75
2022/05/11 03:01:49;;;;;;;16.27;7.25;;;;;;;12.68;53.48;98515.19;5050531;28;20067;-75
2022/05/11 03:04:15;;;;;;;13.45;6.93;;;;;;;12.70;53.63;98515.72;5050633;28;20024;-75
2022/05/11 03:06:42;;;;;;;16.15;7.20;;;;;;;12.71;53.09;98513.75;5050447;28;20024;-75
2022/05/11 03:09:07;;;;;;;16.02;7.55;;;;;;;12.74;53.01;98524.16;5050411;28;20112;-76
2022/05/11 03:11:34;;;;;;;11.15;6.75;;;;;;;12.74;53.10;98513.97;5050379;28;20055;-76
2022/05/11 03:13:59;;;;;;;13.50;7.13;;;;;;;12.77;53.15;98515.28;5050507;28;20025;-76
2022/05/11 03:16:25;;;;;;;12.27;6.90;;;;;;;12.76;53.34;98517.22;5050346;28;20782;-76
2022/05/11 03:18:50;;;;;;;16.98;7.18;;;;;;;12.77;53.10;98509.78;5048954;28;20444;-76
2022/05/11 03:21:16;;;;;;;14.50;7.25;;;;;;;12.76;53.50;98510.91;5048860;28;20066;-76
2022/05/11 03:23:42;;;;;;;11.82;6.60;;;;;;;12.78;53.96;98514.16;5050249;28;20513;-77
2022/05/11 03:26:08;;;;;;;13.93;6.60;;;;;;;12.79;53.95;98513.03;5048759;28;20020;-76
2022/05/11 03:28:34;;;;;;;15.77;7.80;;;;;;;12.81;53.28;98502.53;5049997;28;20570;-76
2022/05/11 03:31:00;;;;;;;13.02;6.95;;;;;;;12.86;53.66;98512.59;5048477;28;20128;-76
2022/05/11 03:36:09;;;;;;;13.65;7.30;;;;;;;12.93;53.43;98507.47;5048580;28;20039;-76
2022/05/11 03:38:35;;;;;;;14.32;6.68;;;;;;;12.97;53.54;98505.75;5050075;28;20455;-76
2022/05/11 03:41:00;;;;;;;14.48;7.05;;;;;;;13.03;53.57;98504.50;5049525;28;20029;-76
2022/05/11 03:43:25;;;;;;;13.25;7.63;;;;;;;13.08;53.45;98518.16;5050235;28;20459;-76
2022/05/11 03:45:51;;;;;;;16.08;8.05;;;;;;;13.14;53.44;98507.81;5049983;28;20536;-76
2022/05/11 03:48:17;;;;;;;17.98;9.07;;;;;;;13.20;53.70;98514.84;5049791;28;20452;-76
2022/05/11 03:50:42;;;;;;;16.30;8.70;;;;;;;13.25;53.44;98502.88;5049527;28;20035;-76
2022/05/11 03:53:08;;;;;;;15.90;7.90;;;;;;;13.29;53.11;98503.06;5049393;28;20037;-76
2022/05/11 03:55:34;;;;;;;15.23;8.63;;;;;;;13.34;53.14;98502.94;5049248;28;20025;-76
2022/05/11 03:58:00;;;;;;;14.70;7.60;;;;;;;13.37;53.20;98505.09;5049466;28;20024;-76
2022/05/11 04:00:27;;;;;;;13.85;7.63;;;;;;;13.41;53.10;98508.88;5049395;28;20068;-76
2022/05/11 04:02:54;;;;;;;14.57;6.93;;;;;;;13.44;53.29;98510.16;5046504;28;20485;-76
2022/05/11 04:05:20;;;;;;;12.40;6.95;;;;;;;13.47;52.91;98513.09;5049535;28;20096;-76
2022/05/11 04:07:46;;;;;;;11.43;7.13;;;;;;;13.48;53.39;98508.41;5050159;28;20040;-76
2022/05/11 04:10:14;;;;;;;14.82;7.10;;;;;;;13.51;52.77;98511.34;5048428;28;20029;-76
2022/05/11 04:12:39;;;;;;;11.60;6.50;;;;;;;13.53;53.14;98511.84;5051707;28;20116;-77
2022/05/11 04:15:06;;;;;;;10.82;6.22;;;;;;;13.56;53.41;98513.19;5050803;28;20223;-77
2022/05/11 04:17:32;;;;;;;12.85;6.53;;;;;;;13.60;53.34;98507.84;5051021;28;20031;-77
2022/05/11 04:19:58;;;;;;;11.75;5.90;;;;;;;13.63;53.19;98508.03;5047206;28;20025;-77
2022/05/11 04:22:23;;;;;;;14.85;6.32;;;;;;;13.68;53.21;98510.63;5051145;28;20104;-77
2022/05/11 04:24:48;;;;;;;12.68;5.80;;;;;;;13.78;53.15;98511.50;5050500;28;20104;-77
2022/05/11 04:27:14;;;;;;;12.07;5.63;;;;;;;13.84;52.62;98516.59;5052055;28;20027;-76
2022/05/11 04:29:40;;;;;;;11.27;5.47;;;;;;;13.95;52.69;98514.34;5050284;28;20021;-77
2022/05/11 04:32:07;;;;;;;13.55;5.70;;;;;;;14.04;52.74;98508.88;5050620;28;20464;-77
2022/05/11 04:34:34;;;;;;;11.10;5.32;;;;;;;14.13;52.37;98509.72;5050438;28;20078;-77
2022/05/11 04:37:00;;;;;;;10.63;5.13;;;;;;;14.23;52.65;98505.84;5049722;28;20048;-76
2022/05/11 04:39:26;;;;;;;8.50;5.05;;;;;;;14.34;51.96;98511.88;5050356;28;20025;-76
2022/05/11 04:41:51;;;;;;;11.48;5.10;;;;;;;14.42;51.98;98513.06;5048586;28;20579;-76
2022/05/11 04:44:17;;;;;;;12.13;4.65;;;;;;;14.54;51.70;98510.47;5050167;28;20405;-76
2022/05/11 04:46:42;;;;;;;10.93;5.07;;;;;;;14.63;51.55;98515.22;5049822;28;20036;-76
2022/05/11 04:49:19;;;;;;;8.05;4.97;;;;;;;14.71;51.02;98511.69;5050123;28;20033;-76
2022/05/11 04:51:58;;;;;;;13.35;6.22;;;;;;;14.77;51.13;98512.34;5050027;28;20112;-76
2022/05/11 04:54:23;;;;;;;9.07;4.87;;;;;;;14.83;51.29;98522.09;5049705;28;20474;-77
2022/05/11 04:56:49;;;;;;;8.80;4.75;;;;;;;14.88;50.88;98510.88;5049471;28;20308;-76
2022/05/11 04:59:14;;;;;;;11.40;5.00;;;;;;;14.95;50.64;98513.16;5049744;28;20055;-76
2022/05/11 05:01:40;;;;;;;9.90;5.55;;;;;;;15.03;50.79;98512.34;5050108;28;20101;-76
2022/05/11 05:04:06;;;;;;;11.25;5.28;;;;;;;15.07;50.55;98501.50;5050274;28;20098;-76
2022/05/11 05:06:33;;;;;;;8.90;4.93;;;;;;;15.15;50.66;98500.66;5049895;28;20033;-76
2022/05/11 05:09:00;;;;;;;9.57;5.07;;;;;;;15.23;50.49;98505.38;5046902;28;20480;-76
2022/05/11 05:11:25;;;;;;;12.10;5.10;;;;;;;15.30;50.06;98510.38;5049569;28;20025;-77
2022/05/11 05:13:51;;;;;;;13.18;5.10;;;;;;;15.36;50.39;98509.09;5047285;28;20040;-77
2022/05/11 05:16:16;;;;;;;10.70;5.43;;;;;;;15.41;50.38;98508.13;5049305;28;20396;-77
2022/05/11 05:18:41;;;;;;;14.90;5.43;;;;;;;15.48;50.15;98500.16;5051100;28;20064;-76
2022/05/11 05:21:07;;;;;;;8.80;4.75;;;;;;;15.56;49.81;98502.06;5047126;28;20099;-77
2022/05/11 05:23:34;;;;;;;10.95;4.97;;;;;;;15.66;49.38;98505.63;5050139;28;20350;-77
2022/05/11 05:26:01;;;;;;;9.77;5.13;;;;;;;15.73;49.28;98503.97;5049857;28;20108;-77
2022/05/11 05:31:15;;;;;;;10.93;5.22;;;;;;;15.93;49.49;98513.53;5051307;28;20458;-77
2022/05/11 05:33:40;;;;;;;9.30;4.35;;;;;;;16.03;49.25;98514.31;5053655;28;20021;-77
2022/05/11 05:36:07;;;;;;;11.60;4.45;;;;;;;16.11;48.99;98509.88;5053483;28;20025;-77
2022/05/11 05:38:33;;;;;;;9.48;4.35;;;;;;;16.20;48.55;98514.25;5053771;28;20025;-77
2022/05/11 05:40:58;;;;;;;10.48;4.78;;;;;;;16.29;48.36;98524.50;5053622;28;20028;-77
2022/05/11 05:43:25;;;;;;;7.82;4.43;;;;;;;16.37;48.71;98513.38;5053371;28;20051;-77
2022/05/11 05:45:52;;;;;;;10.85;4.47;;;;;;;16.48;48.54;98510.22;5052117;28;20103;-77
2022/05/11 05:48:19;;;;;;;11.32;4.50;;;;;;;16.56;48.01;98517.66;5052577;28;20029;-77
2022/05/11 05:50:45;;;;;;;9.93;4.68;;;;;;;16.61;48.39;98514.69;5051214;28;20021;-77
2022/05/11 05:53:11;;;;;;;11.98;4.53;;;;;;;16.69;48.03;98514.97;5055212;28;20093;-78
2022/05/11 05:55:36;;;;;;;7.93;4.38;;;;;;;16.77;47.99;98511.34;5050484;28;20033;-77
2022/05/11 05:58:03;;;;;;;12.05;4.38;;;;;;;16.87;47.55;98510.94;5052662;28;20036;-77
2022/05/11 06:00:29;;;;;;;9.32;4.20;;;;;;;16.99;47.82;98514.94;5050876;28;20036;-78
2022/05/11 06:02:56;;;;;;;9.02;4.50;;;;;;;17.11;47.57;98515.84;5051029;28;20086;-78
2022/05/11 06:05:22;;;;;;;8.55;4.38;;;;;;;17.22;47.33;98510.69;5050926;28;20037;-78
2022/05/11 06:07:47;;;;;;;8.13;4.35;;;;;;;17.34;47.55;98511.88;5054651;28;20591;-78
2022/05/11 06:10:13;;;;;;;8.93;3.75;;;;;;;17.51;46.89;98522.03;5049289;28;20041;-78
2022/05/11 06:12:38;;;;;;;8.10;4.38;;;;;;;17.66;46.63;98512.25;5050940;28;20021;-78
2022/05/11 06:15:05;;;;;;;8.65;3.90;;;;;;;17.83;46.27;98511.25;5049616;28;20070;-80
2022/05/11 06:17:32;;;;;;;8.02;4.00;;;;;;;17.97;45.92;98517.25;5051067;28;20497;-78
2022/05/11 06:19:58;;;;;;;11.45;4.20;;;;;;;18.10;45.03;98523.69;5051328;28;20147;-79
2022/05/11 06:22:24;;;;;;;10.07;4.05;;;;;;;18.21;44.87;98517.66;5051642;28;20115;-79
2022/05/11 06:24:50;;;;;;;9.07;4.00;;;;;;;18.25;44.91;98518.59;5051061;28;20474;-79
2022/05/11 06:27:18;;;;;;;13.35;4.47;;;;;;;18.34;45.28;98519.31;5049953;28;20035;-77
2022/05/11 06:29:52;;;;;;;6.53;4.07;;;;;;;18.39;44.96;98524.63;5050171;28;20017;-78
2022/05/11 06:32:19;;;;;;;6.55;3.90;;;;;;;18.40;44.19;98526.25;5050906;28;20079;-76
2022/05/11 06:34:45;;;;;;;8.55;4.10;;;;;;;18.40;44.71;98530.97;5051197;28;20103;-75
2022/05/11 06:37:10;;;;;;;14.23;4.05;;;;;;;18.40;44.73;98530.97;5052459;28;20057;-75
2022/05/11 06:39:36;;;;;;;9.20;3.80;;;;;;;18.38;45.06;98527.72;5050240;28;20154;-76
2022/05/11 06:42:02;;;;;;;7.55;4.10;;;;;;;18.36;44.91;98528.09;5054384;28;20952;-78
2022/05/11 06:44:27;;;;;;;7.55;3.70;;;;;;;18.34;45.02;98527.63;5051649;28;20025;-77
2022/05/11 06:46:53;;;;;;;12.15;3.97;;;;;;;18.36;45.08;98524.50;5052309;28;20029;-77
2022/05/11 06:49:19;;;;;;;9.30;4.18;;;;;;;18.39;45.18;98521.03;5051256;28;20025;-77
2022/05/11 06:51:44;;;;;;;10.63;4.05;;;;;;;18.43;45.16;98522.78;5051321;28;20102;-79
2022/05/11 06:59:38;;;;;;;5.88;3.67;;;;;;;18.55;45.04;98521.97;5051092;28;20507;-79
2022/05/11 07:02:05;;;;;;;7.28;3.80;;;;;;;18.57;44.90;98525.19;5050037;28;20025;-79
2022/05/11 07:04:33;;;;;;;11.57;3.90;;;;;;;18.58;45.50;98524.03;5049894;28;20083;-78
2022/05/11 07:07:00;;;;;;;7.13;3.33;;;;;;;18.60;45.06;98520.91;5051093;28;20501;-79
2022/05/11 07:09:28;;;;;;;4.88;3.30;;;;;;;18.66;44.81;98524.28;5050848;28;20104;-78
2022/05/11 07:14:38;;;;;;;7.60;3.42;;;;;;;18.93;45.29;98516.34;5050871;28;20132;-80
2022/05/11 07:17:04;;;;;;;6.97;3.40;;;;;;;19.06;44.91;98509.63;5050752;28;20148;-78
2022/05/11 07:19:29;;;;;;;5.13;3.20;;;;;;;19.23;44.94;98511.31;5050464;28;20461;-78
2022/05/11 07:21:55;;;;;;;5.22;2.90;;;;;;;19.39;45.11;98504.97;5050807;28;20112;-79
2022/05/11 07:24:21;;;;;;;9.90;3.50;;;;;;;19.54;44.68;98500.66;5050348;28;20035;-79
2022/05/11 07:26:47;;;;;;;5.32;3.55;;;;;;;19.66;44.26;98508.13;5049994;28;20025;-78
2022/05/11 07:29:14;;;;;;;8.60;3.60;;;;;;;19.75;43.63;98508.78;5049639;28;20548;-78
2022/05/11 07:31:40;;;;;;;6.18;3.50;;;;;;;19.83;43.73;98510.56;5049338;28;20028;-78
2022/05/11 07:34:05;;;;;;;4.65;3.05;;;;;;;19.92;43.45;98521.56;5049664;28;20035;-78
2022/05/11 07:36:31;;;;;;;5.00;3.53;;;;;;;20.00;43.05;98503.84;5049479;28;20462;-78
2022/05/11 07:38:57;;;;;;;6.25;3.40;;;;;;;20.07;43.03;98506.03;5050451;28;20037;-78
2022/05/11 07:41:23;;;;;;;7.93;4.03;;;;;;;20.16;42.82;98500.28;5047771;28;20036;-77
2022/05/11 07:43:49;;;;;;;6.68;3.50;;;;;;;20.21;43.14;98500.81;5042503;28;20060;-80
2022/05/11 07:46:14;;;;;;;4.97;3.78;;;;;;;20.31;43.17;98498.66;5047136;28;20635;-80
2022/05/11 07:48:40;;;;;;;7.10;3.50;;;;;;;20.44;43.12;98493.78;5049146;28;20036;-80
2022/05/11 07:51:06;;;;;;;10.45;3.53;;;;;;;20.53;42.98;98495.22;5049179;28;20032;-81
2022/05/11 07:53:32;;;;;;;7.03;3.38;;;;;;;20.68;42.99;98489.97;5049010;28;20409;-80
2022/05/11 08:01:26;;;;;;;5.78;3.30;;;;;;;21.09;42.37;98486.91;5048583;28;20507;-80
2022/05/11 08:03:52;;;;;;;8.00;3.15;;;;;;;21.17;42.06;98477.50;5046914;28;20108;-78
2022/05/11 08:06:18;;;;;;;5.22;3.58;;;;;;;21.26;42.06;98471.72;5048601;28;20045;-76
2022/05/11 08:08:44;;;;;;;7.40;3.60;;;;;;;21.33;42.22;98474.66;5048874;28;20025;-78
2022/05/11 08:11:10;;;;;;;8.02;3.28;;;;;;;21.46;42.48;98477.25;5048837;28;20496;-79
2022/05/11 08:13:35;;;;;;;5.50;3.22;;;;;;;21.56;41.63;98473.88;5052566;28;20631;-78
2022/05/11 08:16:01;;;;;;;5.30;3.70;;;;;;;21.64;41.97;98474.81;5049582;28;20017;-78
2022/05/11 08:18:27;;;;;;;4.70;3.20;;;;;;;21.74;41.30;98468.63;5044520;28;20032;-76
2022/05/11 08:20:53;;;;;;;4.63;3.40;;;;;;;21.84;40.73;98470.00;5048065;28;20029;-79
2022/05/11 08:23:21;;;;;;;4.97;3.20;;;;;;;21.90;40.94;98467.72;5048816;28;20483;-79
2022/05/11 08:25:46;;;;;;;4.78;3.10;;;;;;;22.01;41.07;98477.91;5046903;28;20037;-80
2022/05/11 08:28:17;;;;;;;4.82;3.58;;;;;;;22.13;40.73;98468.50;5053845;28;20021;-79
2022/05/11 08:33:30;;;;;;;7.57;3.60;;;;;;;22.32;40.43;98469.63;5047569;28;20491;-78
2022/05/11 08:36:01;;;;;;;4.32;3.00;;;;;;;22.43;40.69;98472.56;5048479;28;20768;-81
2022/05/11 08:38:32;;;;;;;8.63;4.28;;;;;;;22.55;39.87;98477.97;5049158;28;20063;-80
2022/05/11 08:41:06;;;;;;;7.47;3.60;;;;;;;22.64;40.40;98485.25;5048227;28;20052;-84
2022/05/11 08:43:34;;;;;;;6.07;3.60;;;;;;;22.73;39.96;98480.22;5045802;28;20044;-79
2022/05/11 08:46:10;;;;;;;6.25;3.83;;;;;;;22.82;40.07;98482.75;5046600;28;20397;-80
2022/05/11 08:49:00;;;;;;;5.28;3.72;;;;;;;22.90;39.71;98478.84;5047778;28;20045;-82
2022/05/11 08:51:36;;;;;;;5.60;3.60;;;;;;;22.91;39.24;98472.06;5041089;28;20044;-78
2022/05/11 08:54:23;;;;;;;7.20;3.78;;;;;;;22.96;39.60;98468.94;5045123;28;20033;-81
2022/05/11 08:56:49;;;;;;;8.73;3.65;;;;;;;23.07;39.59;98466.28;5046191;28;20037;-83
2022/05/11 08:59:23;;;;;;;5.05;4.00;;;;;;;23.16;38.76;98458.41;5048478;28;20025;-77
2022/05/11 09:01:54;;;;;;;4.78;3.42;;;;;;;23.24;39.10;98464.13;5050634;28;20028;-80
2022/05/11 09:04:25;;;;;;;6.78;3.50;;;;;;;23.31;39.28;98458.63;5046747;28;20029;-81
2022/05/11 09:06:51;;;;;;;6.22;3.58;;;;;;;23.42;39.10;98469.91;5051399;28;20060;-82
2022/05/11 09:09:17;;;;;;;7.88;3.60;;;;;;;23.47;38.98;98470.38;5052353;28;20057;-81
2022/05/11 09:11:48;;;;;;;6.53;3.83;;;;;;;23.53;39.24;98454.06;5050982;28;20061;-83
2022/05/11 09:14:18;;;;;;;5.28;3.50;;;;;;;23.62;38.75;98462.13;5050386;28;20499;-80
2022/05/11 09:16:46;;;;;;;4.90;3.55;;;;;;;23.74;39.01;98458.25;5051365;28;20033;-83
2022/05/11 09:19:20;;;;;;;5.55;3.80;;;;;;;23.90;38.52;98463.59;5052544;28;20057;-79
2022/05/11 09:22:11;;;;;;;8.65;3.88;;;;;;;24.01;38.47;98475.75;5053551;28;20029;-78
2022/05/11 09:24:51;;;;;;;3.88;3.33;;;;;;;24.11;38.11;98473.41;5052079;28;20037;-79
2022/05/11 09:27:32;;;;;;;5.80;3.72;;;;;;;24.22;38.02;98465.91;5053574;28;20525;-78
2022/05/11 09:30:03;;;;;;;8.10;3.90;;;;;;;24.33;37.36;98471.59;5050070;28;20059;-79
2022/05/11 09:32:42;;;;;;;9.13;3.67;;;;;;;24.46;38.12;98463.69;5053556;28;20037;-79
2022/05/11 09:35:14;;;;;;;7.00;3.75;;;;;;;24.61;37.50;98465.38;5052240;28;20108;-79
2022/05/11 09:37:42;;;;;;;6.32;3.97;;;;;;;24.75;37.39;98461.88;5053439;28;20116;-82
2022/05/11 09:40:16;;;;;;;6.35;3.92;;;;;;;24.85;35.91;98465.94;5051114;28;20032;-76
2022/05/11 09:42:59;;;;;;;7.53;3.83;;;;;;;24.97;36.14;98439.53;5053022;28;20028;-78
2022/05/11 09:45:44;;;;;;;4.63;3.60;;;;;;;25.12;36.09;98446.00;5052412;28;20493;-77
2022/05/11 09:48:16;;;;;;;5.03;3.45;;;;;;;25.23;35.15;98443.25;5047199;28;20083;-77
2022/05/11 09:50:43;;;;;;;8.80;4.18;;;;;;;25.32;33.81;98454.91;5051348;28;20416;-77
2022/05/11 09:53:22;;;;;;;10.50;4.20;;;;;;;25.37;34.44;98446.09;5050998;28;20052;-77
2022/05/11 09:55:49;;;;;;;7.18;3.88;;;;;;;25.39;34.26;98438.09;5049403;28;20025;-78
2022/05/11 09:58:28;;;;;;;7.00;3.72;;;;;;;25.50;34.43;98431.72;5050581;28;20075;-77
2022/05/11 10:01:10;;;;;;;6.25;3.60;;;;;;;25.64;34.19;98437.38;5049530;28;20397;-77
2022/05/11 10:03:40;;;;;;;6.40;3.70;;;;;;;25.69;33.44;98433.38;5051678;28;20033;-78
2022/05/11 10:06:07;;;;;;;11.40;3.88;;;;;;;25.83;34.58;98435.38;5050617;28;20037;-77
2022/05/11 10:08:36;;;;;;;5.55;3.33;;;;;;;26.04;34.00;98430.97;5052485;28;20041;-77
2022/05/11 10:11:13;;;;;;;7.80;3.50;;;;;;;26.21;33.38;98427.38;5052412;28;20041;-77
2022/05/11 10:13:57;;;;;;;7.07;3.67;;;;;;;26.28;33.39;98437.81;5052380;28;20558;-77
2022/05/11 10:22:26;;;;;;;5.45;3.63;;;;;;;26.14;32.75;98427.38;5052652;28;20649;-77
2022/05/11 10:25:19;;;;;;;7.53;3.80;;;;;;;26.11;33.02;98420.53;5052392;28;20079;-77
2022/05/11 10:27:51;;;;;;;6.13;4.00;;;;;;;26.09;32.86;98433.38;5050542;28;20029;-77
2022/05/11 10:30:25;;;;;;;7.75;3.88;;;;;;;26.04;31.92;98417.72;5051799;28;20028;-77
2022/05/11 10:33:18;;;;;;;7.28;4.00;;;;;;;26.05;32.57;98426.97;5052078;28;20029;-77
2022/05/11 10:35:59;;;;;;;3.50;3.20;;;;;;;26.08;31.36;98424.16;5052055;28;20421;-78
2022/05/11 10:38:37;;;;;;;5.63;4.00;;;;;;;26.09;31.46;98425.75;5051696;28;20036;-77
2022/05/11 10:41:31;;;;;;;4.40;3.20;;;;;;;26.33;30.57;98428.16;5052192;28;20041;-76
2022/05/11 10:44:29;;;;;;;6.05;3.40;;;;;;;26.49;29.83;98420.13;5048312;28;20551;-77
2022/05/11 10:47:14;;;;;;;4.93;3.50;;;;;;;26.52;29.54;98424.13;5051031;28;20343;-77
2022/05/11 10:49:45;;;;;;;6.47;3.53;;;;;;;26.45;29.18;98425.72;5048957;28;20029;-77
2022/05/11 10:52:29;;;;;;;3.35;3.05;;;;;;;26.48;29.58;98424.13;5049530;28;20066;-76
2022/05/11 10:55:23;;;;;;;4.57;3.45;;;;;;;26.56;28.59;98422.09;5050433;28;20041;-76
2022/05/11 10:58:11;;;;;;;5.97;3.30;;;;;;;26.67;29.30;98405.19;5050671;28;20029;-78
2022/05/11 11:00:45;;;;;;;4.88;3.40;;;;;;;26.88;28.52;98410.78;5054275;28;20501;-76
2022/05/11 11:03:25;;;;;;;6.35;3.30;;;;;;;27.13;28.81;98417.50;5048402;28;20032;-77
2022/05/11 11:08:53;;;;;;;;;;;;;;;27.33;26.49;98407.34;5051976;28;20447;-79
2022/05/11 11:11:52;;;;;;;3.67;2.92;;;;;;;27.36;27.10;98408.50;5049480;28;20270;-78
2022/05/11 11:14:32;;;;;;;3.85;3.00;;;;;;;27.37;27.05;98406.53;5049691;28;20035;-77
2022/05/11 11:17:01;;;;;;;8.25;3.42;;;;;;;27.42;27.12;98408.91;5047825;28;20056;-77
2022/05/11 11:19:28;;;;;;;17.15;3.42;;;;;;;27.51;26.77;98400.03;5048767;28;20124;-77
2022/05/11 11:21:55;;;;;;;4.28;2.97;;;;;;;27.62;26.71;98407.16;5049168;28;20029;-76
2022/05/11 11:24:27;;;;;;;4.25;3.20;;;;;;;27.69;26.24;98405.53;5050508;28;20056;-79
2022/05/11 11:27:00;;;;;;;4.97;3.28;;;;;;;27.79;27.49;98396.97;5045339;28;20771;-77
2022/05/11 11:29:33;;;;;;;6.18;3.10;;;;;;;27.82;26.62;98400.19;5046494;28;20140;-79
2022/05/11 11:31:59;;;;;;;3.67;2.80;;;;;;;27.75;27.06;98399.03;5049599;28;20108;-78
2022/05/11 11:34:28;;;;;;;3.22;2.92;;;;;;;27.75;27.19;98398.25;5049662;28;20458;-75
2022/05/11 11:36:55;;;;;;;8.02;3.22;;;;;;;27.64;26.14;98404.75;5049493;28;20122;-76
2022/05/11 11:39:53;;;;;;;8.43;3.22;;;;;;;27.59;26.87;98399.53;5048129;28;20037;-78
2022/05/11 11:42:31;;;;;;;4.78;3.10;;;;;;;27.55;26.24;98397.97;5049122;28;20473;-75
2022/05/11 11:44:56;;;;;;;6.00;4.03;;;;;;;27.48;27.21;98394.00;5050439;28;20436;-78
2022/05/11 11:47:28;;;;;;;3.80;3.30;;;;;;;27.56;27.62;98382.69;5047398;28;20045;-77
2022/05/11 11:49:55;;;;;;;3.33;2.90;;;;;;;27.63;27.64;98385.44;5044950;28;20033;-78
2022/05/11 11:52:46;;;;;;;8.73;3.00;;;;;;;27.66;27.48;98381.81;5048954;28;20029;-76
2022/05/11 11:55:18;;;;;;;5.15;3.20;;;;;;;27.70;27.83;98376.94;5047687;28;20036;-76
2022/05/11 11:57:44;;;;;;;5.85;3.10;;;;;;;27.82;27.45;98394.56;5048548;28;20060;-76
2022/05/11 12:00:28;;;;;;;5.38;3.90;;;;;;;27.91;27.45;98384.44;5048594;28;20474;-76
2022/05/11 12:02:55;;;;;;;8.43;4.03;;;;;;;28.00;27.00;98378.31;5048193;28;20036;-76
2022/05/11 12:05:55;;;;;;;6.07;3.55;;;;;;;28.06;27.09;98373.81;5047641;28;20529;-76
2022/05/11 12:16:58;;;;;;;5.10;3.20;;;;;;;28.48;26.85;98376.63;5048016;28;20114;-76
2022/05/11 12:19:26;;;;;;;9.55;3.55;;;;;;;28.34;26.35;98368.31;5045025;28;20298;-75
2022/05/11 12:22:12;;;;;;;5.22;3.80;;;;;;;28.28;26.48;98370.81;5047449;28;20025;-74
2022/05/11 12:24:42;;;;;;;6.20;3.55;;;;;;;28.40;27.03;98361.00;5047284;28;20020;-78
2022/05/11 12:27:13;;;;;;;3.90;2.97;;;;;;;28.60;26.73;98363.22;5048255;28;20025;-77